Time;durP1;ratioP1;P1;durP2;ratioP2;P2;SDS_P1;SDS_P2;PMS_P1;PMS_P2;Temp;Humidity;BMP_temperature;BMP_pressure;BME280_temperature;BME280_humidity;BME280_pressure;Samples;Min_cycle;Max_cycle;Signal;HPM_P1;HPM_P2
2023/03/27 00:00:15;;;;;;;;;;;;;;;10.48;48.33;98548.50;5094642;28;19965;-72
2023/03/27 00:02:40;;;;;;;;;;;;;;;10.53;48.09;98542.63;5094702;28;19962;-73
2023/03/27 00:05:06;;;;;;;;;;;;;;;10.61;48.06;98540.84;5076598;28;20406;-72
2023/03/27 00:07:34;;;;;;;;;;;;;;;10.27;49.41;98549.47;5094559;28;19916;-73
2023/03/27 00:10:00;;;;;;;;;;;;;;;10.44;48.43;98539.19;5094545;28;19924;-73
2023/03/27 00:12:26;;;;;;;;;;;;;;;9.77;50.40;98548.81;5088195;28;19912;-73
2023/03/27 00:14:51;;;;;;;;;;;;;;;10.14;49.87;98539.53;5082122;28;19920;-72
2023/03/27 00:17:16;;;;;;;;;;;;;;;10.07;50.20;98538.13;5094184;28;20393;-72
2023/03/27 00:19:42;;;;;;;;;;;;;;;9.49;50.40;98530.00;5094093;28;19972;-73
2023/03/27 00:22:08;;;;;;;;;;;;;;;8.78;51.29;98532.91;5094410;28;19912;-72
2023/03/27 00:24:35;;;;;;;;;;;;;;;7.75;54.08;98524.03;5094161;28;19912;-72
2023/03/27 00:27:00;;;;;;;;;;;;;;;8.06;53.59;98520.00;5094298;28;19923;-72
2023/03/27 00:29:26;;;;;;;;;;;;;;;8.47;52.23;98514.69;5092738;28;19912;-70
2023/03/27 00:31:51;;;;;;;;;;;;;;;7.38;54.72;98511.50;5092728;28;19916;-72
2023/03/27 00:34:17;;;;;;;;;;;;;;;7.58;55.32;98515.47;5108218;28;19919;-72
2023/03/27 00:36:42;;;;;;;;;;;;;;;7.98;53.96;98514.19;5109663;28;20359;-72
2023/03/27 00:39:08;;;;;;;;;;;;;;;8.10;54.05;98512.59;5092854;28;19912;-72
2023/03/27 00:41:34;;;;;;;;;;;;;;;7.89;53.55;98501.47;5093623;28;19924;-72
2023/03/27 00:43:59;;;;;;;;;;;;;;;8.04;53.91;98509.22;5093807;28;20141;-72
2023/03/27 00:46:30;;;;;;;;;;;;;;;8.43;52.83;98500.63;5093855;28;20390;-72
2023/03/27 00:48:57;;;;;;;;;;;;;;;8.55;51.92;98500.66;5080089;28;19916;-72
2023/03/27 00:51:23;;;;;;;;;;;;;;;8.52;52.45;98501.38;5097579;28;20015;-72
2023/03/27 00:53:49;;;;;;;;;;;;;;;7.99;52.97;98485.16;5093665;28;19927;-72
2023/03/27 00:56:17;;;;;;;;;;;;;;;8.00;53.89;98491.53;5092753;28;20485;-72
2023/03/27 00:58:47;;;;;;;;;;;;;;;8.14;51.98;98483.72;5093540;28;20303;-72
2023/03/27 01:01:13;;;;;;;;;;;;;;;7.30;54.99;98484.56;5093605;28;19942;-72
2023/03/27 01:03:40;;;;;;;;;;;;;;;7.94;53.75;98476.22;5093290;28;19923;-72
2023/03/27 01:06:05;;;;;;;;;;;;;;;7.26;55.31;98464.13;5071409;28;19924;-72
2023/03/27 01:08:32;;;;;;;;;;;;;;;7.61;54.29;98461.09;5073017;28;19913;-72
2023/03/27 01:11:00;;;;;;;;;;;;;;;8.06;54.46;98455.94;5073210;28;19923;-72
2023/03/27 01:13:49;;;;;;;;;;;;;;;8.29;53.67;98459.94;5071895;28;19919;-72
2023/03/27 01:16:37;;;;;;;;;;;;;;;8.63;53.18;98464.69;5062624;28;19919;-72
2023/03/27 01:19:11;;;;;;;;;;;;;;;8.54;52.58;98457.25;5062877;28;19916;-72
2023/03/27 01:21:56;;;;;;;;;;;;;;;8.39;52.98;98457.88;5072863;28;19926;-72
2023/03/27 01:24:35;;;;;;;;;;;;;;;8.71;53.13;98452.63;5072422;28;20002;-72
2023/03/27 01:27:01;;;;;;;;;;;;;;;8.53;52.59;98436.09;5088197;28;20031;-72
2023/03/27 01:29:53;;;;;;;;;;;;;;;8.34;53.84;98438.63;5093083;28;19951;-71
2023/03/27 01:32:21;;;;;;;;;;;;;;;7.94;54.62;98435.25;5054316;28;20310;-72
2023/03/27 01:34:49;;;;;;;;;;;;;;;8.20;53.76;98433.34;5092810;28;19965;-71
2023/03/27 01:37:15;;;;;;;;;;;;;;;8.46;53.65;98435.03;5092732;28;19938;-72
2023/03/27 01:39:53;;;;;;;;;;;;;;;8.26;53.87;98438.34;5074495;28;19916;-72
2023/03/27 01:42:28;;;;;;;;;;;;;;;8.53;53.29;98427.75;5091447;28;19983;-72
2023/03/27 01:45:01;;;;;;;;;;;;;;;8.68;53.07;98431.00;5092749;28;20014;-72
2023/03/27 01:47:40;;;;;;;;;;;;;;;8.57;52.99;98419.50;5092738;28;19916;-72
2023/03/27 01:50:09;;;;;;;;;;;;;;;8.64;53.22;98430.06;5073539;28;19920;-72
2023/03/27 01:52:37;;;;;;;;;;;;;;;8.89;52.47;98425.31;5092615;28;20302;-73
2023/03/27 01:55:08;;;;;;;;;;;;;;;8.82;52.24;98425.91;5092351;28;19919;-72
2023/03/27 01:57:52;;;;;;;;;;;;;;;8.60;52.73;98424.38;5092408;28;19955;-72
2023/03/27 02:00:21;;;;;;;;;;;;;;;8.89;52.90;98418.91;5091030;28;20434;-72
2023/03/27 02:03:07;;;;;;;;;;;;;;;8.88;51.77;98409.75;5092649;28;19916;-73
2023/03/27 02:05:52;;;;;;;;;;;;;;;9.15;51.56;98417.72;5092597;28;20349;-72
2023/03/27 02:08:34;;;;;;;;;;;;;;;9.15;51.64;98409.34;5092509;28;19912;-72
2023/03/27 02:10:59;;;;;;;;;;;;;;;8.79;52.96;98412.66;5092194;28;19916;-72
2023/03/27 02:13:28;;;;;;;;;;;;;;;7.85;55.27;98392.78;5092470;28;20067;-72
2023/03/27 02:15:55;;;;;;;;;;;;;;;8.23;54.53;98400.06;5092387;28;20006;-72
2023/03/27 02:18:28;;;;;;;;;;;;;;;8.31;53.75;98398.31;5066967;28;19920;-72
2023/03/27 02:20:53;;;;;;;;;;;;;;;8.14;54.14;98380.66;5092258;28;19951;-72
2023/03/27 02:23:21;;;;;;;;;;;;;;;8.21;53.66;98384.84;5107612;28;20340;-72
2023/03/27 02:25:47;;;;;;;;;;;;;;;7.85;54.84;98387.19;5092418;28;19913;-72
2023/03/27 02:28:33;;;;;;;;;;;;;;;8.13;54.35;98383.78;5092257;28;19918;-72
2023/03/27 02:31:16;;;;;;;;;;;;;;;8.38;54.74;98378.25;5092240;28;19916;-72
2023/03/27 02:34:03;;;;;;;;;;;;;;;8.48;54.47;98377.78;5086695;28;19916;-72
2023/03/27 02:36:43;;;;;;;;;;;;;;;8.50;54.65;98374.63;5071788;28;20088;-72
2023/03/27 02:39:21;;;;;;;;;;;;;;;8.57;53.58;98369.34;5080181;28;19996;-72
2023/03/27 02:41:50;;;;;;;;;;;;;;;8.56;53.80;98362.94;5091862;28;19920;-72
2023/03/27 02:44:24;;;;;;;;;;;;;;;8.63;53.26;98355.97;5092142;28;19986;-72
2023/03/27 02:46:57;;;;;;;;;;;;;;;8.87;52.95;98359.91;5091730;28;19966;-72
2023/03/27 02:49:26;;;;;;;;;;;;;;;8.97;52.62;98356.63;5092136;28;19916;-72
2023/03/27 02:51:56;;;;;;;;;;;;;;;8.97;52.54;98353.84;5074576;28;19943;-72
2023/03/27 02:54:25;;;;;;;;;;;;;;;8.64;54.19;98363.19;5071736;28;20011;-72
2023/03/27 02:56:56;;;;;;;;;;;;;;;8.77;53.85;98367.56;5091343;28;20056;-72
2023/03/27 02:59:24;;;;;;;;;;;;;;;8.37;54.59;98366.28;5073599;28;20439;-72
2023/03/27 03:01:49;;;;;;;;;;;;;;;8.20;54.59;98367.28;5093572;28;19968;-72
2023/03/27 03:04:29;;;;;;;;;;;;;;;8.48;54.94;98357.44;5095859;28;19912;-72
2023/03/27 03:06:55;;;;;;;;;;;;;;;7.98;55.62;98361.00;5095760;28;19912;-72
2023/03/27 03:09:21;;;;;;;;;;;;;;;8.17;56.20;98364.41;5094120;28;19926;-72
2023/03/27 03:11:51;;;;;;;;;;;;;;;8.41;55.74;98356.06;5095429;28;19916;-71
2023/03/27 03:14:19;;;;;;;;;;;;;;;8.40;55.54;98350.84;5095659;28;19912;-71
2023/03/27 03:16:45;;;;;;;;;;;;;;;8.34;56.45;98341.09;5095608;28;19931;-72
2023/03/27 03:19:10;;;;;;;;;;;;;;;8.31;56.37;98334.25;5095138;28;19920;-72
2023/03/27 03:21:36;;;;;;;;;;;;;;;8.45;56.02;98333.06;5095465;28;19912;-72
2023/03/27 03:24:01;;;;;;;;;;;;;;;8.56;55.95;98326.69;5089571;28;19916;-72
2023/03/27 03:26:28;;;;;;;;;;;;;;;8.35;57.18;98318.44;5074888;28;20359;-72
2023/03/27 03:28:56;;;;;;;;;;;;;;;8.33;58.44;98319.97;5075056;28;19912;-72
2023/03/27 03:31:22;;;;;;;;;;;;;;;7.66;60.52;98305.03;5074985;28;19917;-71
2023/03/27 03:33:47;;;;;;;;;;;;;;;7.63;60.23;98304.88;5089421;28;19916;-72
2023/03/27 03:36:13;;;;;;;;;;;;;;;7.66;59.88;98320.88;5115317;28;19974;-72
2023/03/27 03:38:40;;;;;;;;;;;;;;;7.83;58.38;98308.75;5115453;28;19918;-72
2023/03/27 03:41:05;;;;;;;;;;;;;;;7.90;57.64;98308.19;5115567;28;19915;-72
2023/03/27 03:43:30;;;;;;;;;;;;;;;7.41;58.97;98320.81;5077899;28;19924;-72
2023/03/27 03:45:56;;;;;;;;;;;;;;;7.39;60.78;98331.47;5074866;28;19997;-72
2023/03/27 03:48:22;;;;;;;;;;;;;;;6.82;62.67;98314.28;5082076;28;19939;-72
2023/03/27 03:50:48;;;;;;;;;;;;;;;7.18;61.84;98304.53;5094722;28;19972;-71
2023/03/27 03:53:17;;;;;;;;;;;;;;;7.27;60.67;98301.66;5094415;28;19989;-72
2023/03/27 03:55:43;;;;;;;;;;;;;;;7.43;60.52;98310.97;5094967;28;19912;-72
2023/03/27 03:58:09;;;;;;;;;;;;;;;7.40;60.46;98308.88;5094946;28;19919;-71
2023/03/27 04:00:37;;;;;;;;;;;;;;;7.52;60.11;98299.75;5076350;28;19916;-72
2023/03/27 04:03:03;;;;;;;;;;;;;;;7.47;59.65;98297.19;5074537;28;20425;-72
2023/03/27 04:05:29;;;;;;;;;;;;;;;7.55;59.35;98281.56;5074611;28;19916;-72
2023/03/27 04:07:55;;;;;;;;;;;;;;;7.50;60.17;98295.72;5089879;28;19974;-72
2023/03/27 04:10:20;;;;;;;;;;;;;;;7.08;61.91;98294.59;5100350;28;19923;-72
2023/03/27 04:12:46;;;;;;;;;;;;;;;7.15;61.97;98292.09;5104774;28;19922;-72
2023/03/27 04:15:11;;;;;;;;;;;;;;;6.86;62.53;98267.97;5115041;28;19918;-72
2023/03/27 04:17:37;;;;;;;;;;;;;;;7.11;62.02;98290.34;5093013;28;20336;-72
2023/03/27 04:20:04;;;;;;;;;;;;;;;7.11;62.45;98284.78;5074217;28;19956;-72
2023/03/27 04:22:30;;;;;;;;;;;;;;;7.36;61.86;98296.00;5074027;28;20379;-72
2023/03/27 04:24:56;;;;;;;;;;;;;;;7.47;62.28;98293.59;5074130;28;19961;-72
2023/03/27 04:27:21;;;;;;;;;;;;;;;7.54;62.72;98293.84;5080670;28;19939;-72
2023/03/27 04:29:47;;;;;;;;;;;;;;;7.22;63.90;98296.28;5094317;28;19912;-73
2023/03/27 04:32:17;;;;;;;;;;;;;;;7.45;62.42;98289.19;5094190;28;19916;-72
2023/03/27 04:34:43;;;;;;;;;;;;;;;7.61;63.54;98284.94;5093009;28;19919;-72
2023/03/27 04:37:08;;;;;;;;;;;;;;;7.61;64.36;98285.78;5094223;28;20393;-72
2023/03/27 04:39:38;;;;;;;;;;;;;;;7.78;63.59;98286.72;5094368;28;19916;-72
2023/03/27 04:42:04;;;;;;;;;;;;;;;7.97;63.02;98283.38;5109722;28;20003;-72
2023/03/27 04:44:29;;;;;;;;;;;;;;;8.28;61.90;98293.94;5094122;28;20423;-73
2023/03/27 04:46:55;;;;;;;;;;;;;;;8.28;62.45;98274.44;5093997;28;19916;-72
2023/03/27 04:49:20;;;;;;;;;;;;;;;8.17;62.85;98264.94;5093807;28;19995;-72
2023/03/27 04:51:45;;;;;;;;;;;;;;;8.17;62.80;98284.44;5079640;28;20003;-72
2023/03/27 04:54:11;;;;;;;;;;;;;;;8.31;62.92;98272.13;5093640;28;19916;-73
2023/03/27 04:56:36;;;;;;;;;;;;;;;8.48;61.81;98276.63;5098036;28;19916;-72
2023/03/27 04:59:02;;;;;;;;;;;;;;;8.68;61.51;98277.69;5084131;28;20462;-72
2023/03/27 05:01:28;;;;;;;;;;;;;;;8.71;61.40;98263.84;5092869;28;19912;-72
2023/03/27 05:03:53;;;;;;;;;;;;;;;8.71;61.74;98277.00;5092914;28;19919;-72
2023/03/27 05:06:18;;;;;;;;;;;;;;;8.92;61.69;98276.00;5116923;27;19916;-72
2023/03/27 05:08:44;;;;;;;;;;;;;;;8.86;61.28;98292.16;5092444;28;20314;-73
2023/03/27 05:11:09;;;;;;;;;;;;;;;9.17;60.38;98284.28;5092663;28;19916;-72
2023/03/27 05:13:35;;;;;;;;;;;;;;;9.46;59.36;98276.72;5091839;28;19942;-71
2023/03/27 05:16:00;;;;;;;;;;;;;;;9.51;58.07;98270.88;5084293;28;20387;-73
2023/03/27 05:18:29;;;;;;;;;;;;;;;9.35;57.90;98276.41;5072406;28;19919;-72
2023/03/27 05:20:55;;;;;;;;;;;;;;;9.30;57.90;98252.38;5090939;28;20334;-71
2023/03/27 05:23:21;;;;;;;;;;;;;;;9.47;56.99;98268.00;5092233;28;19916;-70
2023/03/27 05:25:46;;;;;;;;;;;;;;;9.62;57.11;98277.56;5093700;28;20302;-73
2023/03/27 05:28:11;;;;;;;;;;;;;;;9.63;56.53;98275.59;5093282;28;19975;-73
2023/03/27 05:30:37;;;;;;;;;;;;;;;9.58;57.97;98262.69;5071717;28;19924;-73
2023/03/27 05:33:02;;;;;;;;;;;;;;;9.62;57.87;98255.22;5085535;28;20299;-71
2023/03/27 05:35:27;;;;;;;;;;;;;;;9.65;57.98;98256.50;5093294;28;19920;-71
2023/03/27 05:37:53;;;;;;;;;;;;;;;9.73;58.34;98249.09;5084949;28;19920;-74
2023/03/27 05:40:21;;;;;;;;;;;;;;;9.53;60.29;98247.03;5088584;28;19931;-73
2023/03/27 05:42:47;;;;;;;;;;;;;;;9.75;59.69;98247.59;5087369;28;19973;-72
2023/03/27 05:45:12;;;;;;;;;;;;;;;10.01;59.74;98259.38;5089287;28;19916;-72
2023/03/27 05:47:48;;;;;;;;;;;;;;;10.20;60.65;98253.06;5091131;28;19916;-73
2023/03/27 05:50:14;;;;;;;;;;;;;;;10.39;59.87;98246.75;5073459;28;19920;-73
2023/03/27 05:52:40;;;;;;;;;;;;;;;10.44;59.98;98235.28;5070818;28;20356;-72
2023/03/27 05:55:06;;;;;;;;;;;;;;;10.43;60.12;98230.88;5091593;28;20015;-72
2023/03/27 05:57:32;;;;;;;;;;;;;;;10.74;59.65;98229.19;5085323;28;19916;-72
2023/03/27 05:59:59;;;;;;;;;;;;;;;10.71;60.35;98217.91;5071135;28;19912;-72
2023/03/27 06:02:24;;;;;;;;;;;;;;;10.61;60.96;98214.50;5071207;28;20379;-72
2023/03/27 06:04:50;;;;;;;;;;;;;;;10.51;62.94;98210.31;5082710;28;19969;-72
2023/03/27 06:07:16;;;;;;;;;;;;;;;10.51;63.10;98213.09;5073174;28;19918;-72
2023/03/27 06:09:41;;;;;;;;;;;;;;;10.58;64.38;98220.00;5090972;28;19916;-72
2023/03/27 06:12:06;;;;;;;;;;;;;;;10.62;64.08;98215.31;5091826;28;19912;-71
2023/03/27 06:14:32;;;;;;;;;;;;;;;10.34;64.80;98241.41;5081282;28;20398;-72
2023/03/27 06:16:57;;;;;;;;;;;;;;;10.18;65.04;98231.06;5077333;28;19916;-72
2023/03/27 06:19:23;;;;;;;;;;;;;;;10.42;65.38;98246.03;5083165;28;20330;-72
2023/03/27 06:21:48;;;;;;;;;;;;;;;10.64;66.10;98238.94;5074241;28;20361;-72
2023/03/27 06:24:14;;;;;;;;;;;;;;;11.01;63.91;98236.91;5077705;28;19920;-71
2023/03/27 06:26:40;;;;;;;;;;;;;;;11.01;63.80;98232.13;5088931;28;20014;-72
2023/03/27 06:29:05;;;;;;;;;;;;;;;11.13;64.37;98219.16;5097503;28;19921;-71
2023/03/27 06:31:30;;;;;;;;;;;;;;;11.41;62.61;98227.31;5067880;28;19931;-71
2023/03/27 06:33:56;;;;;;;;;;;;;;;11.52;62.63;98207.91;5087348;28;19974;-70
2023/03/27 06:36:22;;;;;;;;;;;;;;;11.44;62.64;98214.53;5075195;28;19916;-71
2023/03/27 06:38:47;;;;;;;;;;;;;;;11.08;63.37;98207.06;5078025;28;19916;-71
2023/03/27 06:41:12;;;;;;;;;;;;;;;10.87;64.64;98204.66;5094586;28;19923;-71
2023/03/27 06:43:38;;;;;;;;;;;;;;;10.94;65.16;98209.59;5111407;28;20443;-71
2023/03/27 06:46:05;;;;;;;;;;;;;;;10.93;64.93;98206.00;5095367;28;19963;-71
2023/03/27 06:48:30;;;;;;;;;;;;;;;11.03;65.17;98198.97;5060314;28;20756;-71
2023/03/27 06:50:56;;;;;;;;;;;;;;;10.90;64.71;98191.94;5110281;28;19951;-71
2023/03/27 06:53:22;;;;;;;;;;;;;;;10.85;65.45;98184.63;5087635;28;19924;-70
2023/03/27 06:55:48;;;;;;;;;;;;;;;10.81;65.66;98178.97;5080773;28;19916;-71
2023/03/27 06:58:14;;;;;;;;;;;;;;;10.88;65.85;98157.91;5095134;28;19911;-72
2023/03/27 07:00:40;;;;;;;;;;;;;;;10.86;65.94;98147.09;5095302;28;19923;-71
2023/03/27 07:03:07;;;;;;;;;;;;;;;10.85;66.57;98139.06;5107139;28;19916;-71
2023/03/27 07:05:35;;;;;;;;;;;;;;;11.15;67.01;98119.63;5093481;28;20421;-71
2023/03/27 07:08:01;;;;;;;;;;;;;;;11.44;66.56;98099.75;5087478;28;19939;-71
2023/03/27 07:10:26;;;;;;;;;;;;;;;11.76;64.98;98111.47;5074656;28;19917;-71
2023/03/27 07:12:55;;;;;;;;;;;;;;;11.88;65.01;98088.03;5075807;28;19923;-71
2023/03/27 07:15:21;;;;;;;;;;;;;;;11.98;63.41;98080.97;5074562;28;20026;-73
2023/03/27 07:17:53;;;;;;;;;;;;;;;11.78;63.96;98071.88;5074805;28;20450;-71
2023/03/27 07:20:19;;;;;;;;;;;;;;;11.82;64.21;98050.31;5074304;28;19962;-71
2023/03/27 07:22:44;;;;;;;;;;;;;;;11.71;64.32;98027.75;5056667;28;19913;-71
2023/03/27 07:25:11;;;;;;;;;;;;;;;11.34;66.05;98034.81;5074597;28;19921;-71
2023/03/27 07:27:36;;;;;;;;;;;;;;;11.22;66.47;97996.63;5074529;28;19913;-72
2023/03/27 07:30:02;;;;;;;;;;;;;;;11.28;66.35;97979.50;5078037;28;19921;-71
2023/03/27 07:32:31;;;;;;;;;;;;;;;11.30;67.05;97993.97;5077656;28;19999;-71
2023/03/27 07:34:56;;;;;;;;;;;;;;;11.23;67.95;97952.69;5075830;28;19923;-71
2023/03/27 07:37:22;;;;;;;;;;;;;;;11.16;68.05;97952.56;5086720;28;20002;-71
2023/03/27 07:39:47;;;;;;;;;;;;;;;11.13;68.04;97950.53;5074256;28;20016;-72
2023/03/27 07:42:13;;;;;;;;;;;;;;;11.11;69.50;97944.50;5074404;28;19920;-71
2023/03/27 07:44:38;;;;;;;;;;;;;;;11.19;68.57;97937.81;5090590;28;20191;-71
2023/03/27 07:47:03;;;;;;;;;;;;;;;11.29;69.10;97944.78;5094351;28;20400;-71
2023/03/27 07:49:29;;;;;;;;;;;;;;;11.28;68.91;97926.34;5074188;28;19959;-71
2023/03/27 07:51:54;;;;;;;;;;;;;;;11.47;68.88;97937.41;5109947;28;19916;-71
2023/03/27 07:54:20;;;;;;;;;;;;;;;11.60;67.78;97924.00;5109560;28;19916;-71
2023/03/27 07:56:46;;;;;;;;;;;;;;;11.78;67.79;97920.63;5082279;28;19916;-71
2023/03/27 07:59:11;;;;;;;;;;;;;;;11.75;67.80;97910.19;5085956;28;19927;-70
2023/03/27 08:01:36;;;;;;;;;;;;;;;11.78;67.86;97915.84;5079600;28;19938;-70
2023/03/27 08:04:02;;;;;;;;;;;;;;;11.80;67.82;97907.84;5071837;28;19916;-69
2023/03/27 08:06:27;;;;;;;;;;;;;;;11.91;68.31;97907.97;5074532;28;19924;-70
2023/03/27 08:08:53;;;;;;;;;;;;;;;11.90;68.43;97889.53;5074100;28;19978;-70
2023/03/27 08:11:18;;;;;;;;;;;;;;;11.88;68.43;97893.91;5108015;28;19926;-70
2023/03/27 08:13:44;;;;;;;;;;;;;;;11.89;68.74;97890.75;5085562;28;19923;-69
2023/03/27 08:16:19;;;;;;;;;;;;;;;11.87;68.30;97879.09;5063728;28;19946;-70
2023/03/27 08:18:45;;;;;;;;;;;;;;;11.84;68.76;97874.28;5086280;28;19921;-70
2023/03/27 08:21:11;;;;;;;;;;;;;;;12.02;69.32;97880.13;5077393;28;20018;-70
2023/03/27 08:23:37;;;;;;;;;;;;;;;12.00;68.82;97874.03;5079685;28;19947;-70
2023/03/27 08:26:04;;;;;;;;;;;;;;;12.31;69.12;97869.19;5093280;28;19923;-70
2023/03/27 08:28:30;;;;;;;;;;;;;;;12.96;67.96;97871.72;5082527;28;19920;-69
2023/03/27 08:30:56;;;;;;;;;;;;;;;13.48;66.28;97868.03;5073118;28;19951;-70
2023/03/27 08:33:21;;;;;;;;;;;;;;;13.99;64.48;97879.47;5089888;28;19920;-70
2023/03/27 08:35:48;;;;;;;;;;;;;;;14.23;63.88;97879.91;5090722;28;19916;-69
2023/03/27 08:38:13;;;;;;;;;;;;;;;14.36;63.00;97875.56;5092938;28;19912;-70
2023/03/27 08:40:40;;;;;;;;;;;;;;;14.62;62.27;97869.94;5104914;28;19920;-70
2023/03/27 08:43:11;;;;;;;;;;;;;;;14.66;61.09;97863.09;5055131;28;19920;-69
2023/03/27 08:45:49;;;;;;;;;;;;;;;15.06;62.10;97854.66;5055117;28;19920;-70
2023/03/27 08:48:37;;;;;;;;;;;;;;;15.20;60.34;97836.91;5073067;28;20023;-70
2023/03/27 08:51:06;;;;;;;;;;;;;;;15.39;60.10;97834.84;5070515;28;19943;-70
2023/03/27 08:53:38;;;;;;;;;;;;;;;15.46;58.75;97829.22;5073940;28;19946;-70
2023/03/27 08:56:04;;;;;;;;;;;;;;;15.48;58.86;97826.78;5084121;28;20038;-70
2023/03/27 08:58:29;;;;;;;;;;;;;;;15.73;59.56;97821.00;5081448;28;20825;-69
2023/03/27 09:00:59;;;;;;;;;;;;;;;16.04;59.49;97817.66;5068087;28;19916;-70
2023/03/27 09:03:31;;;;;;;;;;;;;;;16.32;57.33;97813.06;5092019;28;20045;-70
2023/03/27 09:05:57;;;;;;;;;;;;;;;16.61;57.38;97820.50;5087604;28;19916;-71
2023/03/27 09:08:25;;;;;;;;;;;;;;;16.73;55.17;97822.00;5085446;28;19999;-70
2023/03/27 09:10:58;;;;;;;;;;;;;;;16.92;54.17;97809.31;5100398;28;20350;-70
2023/03/27 09:13:33;;;;;;;;;;;;;;;16.72;54.23;97803.44;5073713;28;20398;-70
2023/03/27 09:16:05;;;;;;;;;;;;;;;16.86;54.13;97808.94;5074319;28;20006;-70
2023/03/27 09:18:42;;;;;;;;;;;;;;;17.10;53.53;97807.13;5083473;28;20140;-70
2023/03/27 09:21:18;;;;;;;;;;;;;;;17.35;51.50;97823.00;5075828;28;20329;-71
2023/03/27 09:25:02;;;;;;;29.88;17.65;;;;;;;17.89;50.32;97827.16;5165832;27;20122;-71
2023/03/27 09:27:33;;;;;;;20.90;14.25;;;;;;;17.92;49.12;97820.69;5146592;27;20428;-69
2023/03/27 09:30:18;;;;;;;19.10;14.20;;;;;;;18.43;49.01;97830.47;5135056;27;20024;-69
2023/03/27 09:32:46;;;;;;;27.80;16.17;;;;;;;18.59;50.47;97832.66;5144089;27;20031;-69
2023/03/27 09:35:19;;;;;;;24.98;14.95;;;;;;;18.70;48.63;97821.13;5132213;27;20088;-68
2023/03/27 09:37:47;;;;;;;21.33;15.45;;;;;;;18.44;48.71;97821.56;5133677;27;20030;-73
2023/03/27 09:40:22;;;;;;;22.88;14.05;;;;;;;18.17;49.24;97822.38;5147210;27;20397;-70
2023/03/27 09:42:51;;;;;;;25.63;17.58;;;;;;;17.73;51.02;97812.84;5104655;28;20038;-70
2023/03/27 09:45:19;;;;;;;24.73;14.77;;;;;;;17.30;51.98;97825.50;5107793;28;20031;-69
2023/03/27 09:47:57;;;;;;;26.10;16.92;;;;;;;17.20;52.54;97819.53;5127153;28;20549;-71
2023/03/27 09:50:28;;;;;;;29.08;18.80;;;;;;;16.98;52.52;97816.13;5127574;28;20027;-69
2023/03/27 09:53:14;;;;;;;41.45;27.80;;;;;;;16.72;52.71;97806.28;5127056;28;20493;-70
2023/03/27 09:56:13;;;;;;;30.35;18.33;;;;;;;16.68;53.63;97809.94;5107291;28;20032;-71
2023/03/27 09:58:42;;;;;;;34.65;22.60;;;;;;;16.73;53.24;97793.75;5126664;28;20023;-69
2023/03/27 10:01:33;;;;;;;23.60;17.17;;;;;;;16.63;53.26;97790.59;5127080;28;20042;-69
2023/03/27 10:03:58;;;;;;;;;;;;;;;16.61;53.30;97787.41;5114081;28;20039;-70
2023/03/27 10:06:25;;;;;;;26.23;16.70;;;;;;;16.52;53.88;97793.53;5126198;28;19919;-70
2023/03/27 10:08:51;;;;;;;24.33;16.77;;;;;;;16.32;54.07;97790.47;5126591;28;20041;-71
2023/03/27 10:11:20;;;;;;;27.20;16.70;;;;;;;16.24;55.11;97784.09;5122780;28;20539;-72
2023/03/27 10:13:47;;;;;;;24.23;15.82;;;;;;;16.37;54.68;97777.97;5113752;28;20028;-72
2023/03/27 10:16:18;;;;;;;24.10;14.88;;;;;;;16.41;53.83;97764.63;5124444;28;20035;-71
2023/03/27 10:18:47;;;;;;;39.70;21.58;;;;;;;16.45;53.91;97768.19;5126617;28;20076;-72
2023/03/27 10:21:24;;;;;;;38.65;22.27;;;;;;;16.39;53.67;97755.75;5107148;28;20050;-72
2023/03/27 10:23:50;;;;;;;23.38;15.50;;;;;;;16.34;53.83;97756.19;5125431;28;20053;-72
2023/03/27 10:26:24;;;;;;;23.45;14.15;;;;;;;16.34;53.89;97753.38;5110131;28;20401;-72
2023/03/27 10:28:51;;;;;;;24.13;13.45;;;;;;;16.44;53.60;97749.66;5106822;28;20526;-72
2023/03/27 10:31:36;;;;;;;23.05;14.68;;;;;;;16.26;54.01;97747.81;5109894;28;20406;-72
2023/03/27 10:34:05;;;;;;;26.65;14.88;;;;;;;16.52;53.21;97744.75;5125942;28;20042;-72
2023/03/27 10:36:33;;;;;;;22.05;14.32;;;;;;;16.45;53.11;97747.66;5114340;28;20027;-72
2023/03/27 10:39:12;;;;;;;24.35;17.98;;;;;;;16.50;52.42;97738.72;5114306;28;20024;-72
2023/03/27 10:41:38;;;;;;;16.35;12.95;;;;;;;16.45;52.95;97736.38;5103532;28;20537;-72
2023/03/27 10:44:14;;;;;;;23.45;14.70;;;;;;;16.65;52.74;97731.75;5113947;28;20400;-70
2023/03/27 10:46:41;;;;;;;45.80;26.83;;;;;;;16.69;52.00;97712.75;5114174;28;20020;-70
2023/03/27 10:49:09;;;;;;;24.23;17.17;;;;;;;16.84;52.19;97730.34;5113661;28;20482;-70
2023/03/27 10:51:50;;;;;;;18.52;13.48;;;;;;;16.94;52.04;97697.53;5113921;28;20084;-71
2023/03/27 10:54:22;;;;;;;29.23;17.95;;;;;;;17.00;52.02;97688.63;5113549;28;20109;-71
2023/03/27 10:57:01;;;;;;;27.52;16.65;;;;;;;17.46;51.11;97677.97;5114071;28;20451;-71
2023/03/27 11:00:16;;;;;;;27.15;16.60;;;;;;;17.92;49.31;97669.97;5103282;28;20030;-71
2023/03/27 11:03:01;;;;;;;21.25;12.93;;;;;;;18.17;48.70;97657.47;5050783;28;20089;-70
2023/03/27 11:05:33;;;;;;;15.90;12.63;;;;;;;17.99;48.45;97635.13;5095392;28;20028;-70
2023/03/27 11:08:09;;;;;;;18.00;12.48;;;;;;;17.94;48.62;97625.09;5099085;28;20027;-70
2023/03/27 11:11:02;;;;;;;19.92;13.60;;;;;;;17.90;48.63;97619.50;5114278;28;20054;-71
2023/03/27 11:13:34;;;;;;;20.95;12.52;;;;;;;18.40;48.07;97610.59;5114180;28;20078;-70
2023/03/27 11:16:33;;;;;;;20.90;13.23;;;;;;;19.07;47.70;97582.13;5114106;28;20035;-70
2023/03/27 11:19:04;;;;;;;18.10;12.65;;;;;;;19.56;45.95;97577.75;5104515;28;20160;-71
2023/03/27 11:21:48;;;;;;;24.77;14.07;;;;;;;19.87;44.66;97566.06;5114001;28;20031;-70
2023/03/27 11:24:39;;;;;;;15.60;11.27;;;;;;;20.03;44.79;97544.63;5092603;28;20072;-70
2023/03/27 11:27:13;;;;;;;20.55;11.45;;;;;;;20.20;43.80;97520.63;5088936;28;20181;-71
2023/03/27 11:29:48;;;;;;;14.65;9.82;;;;;;;20.38;43.28;97512.84;5113674;28;20406;-71
2023/03/27 11:32:25;;;;;;;12.88;8.82;;;;;;;20.34;42.68;97510.91;5113713;28;20038;-72
2023/03/27 11:35:01;;;;;;;13.32;9.77;;;;;;;20.59;41.63;97506.53;5094801;28;20123;-75
2023/03/27 11:37:27;;;;;;;11.07;8.35;;;;;;;20.50;40.48;97502.78;5112906;28;20106;-72
2023/03/27 11:40:32;;;;;;;17.40;7.47;;;;;;;20.89;37.84;97495.94;5113082;28;20467;-72
2023/03/27 11:42:58;;;;;;;24.63;7.05;;;;;;;21.20;37.99;97483.22;5084322;28;20126;-73
2023/03/27 11:45:31;;;;;;;12.20;6.82;;;;;;;21.42;38.28;97483.28;5113312;28;20110;-73
2023/03/27 11:48:15;;;;;;;8.35;5.20;;;;;;;21.06;35.69;97475.13;5094234;28;20477;-73
2023/03/27 11:50:55;;;;;;;6.18;5.32;;;;;;;21.14;34.95;97477.31;5112815;28;20022;-73
2023/03/27 11:53:55;;;;;;;8.68;4.63;;;;;;;21.54;34.79;97456.09;5106694;28;20398;-73
2023/03/27 11:56:36;;;;;;;4.82;4.32;;;;;;;21.84;32.52;97456.69;5106413;28;20031;-74
2023/03/27 11:59:14;;;;;;;5.13;3.65;;;;;;;21.93;30.82;97453.13;5111029;28;20043;-74
2023/03/27 12:02:15;;;;;;;4.50;3.92;;;;;;;22.13;30.84;97443.50;5112596;28;20026;-74
2023/03/27 12:05:16;;;;;;;4.07;3.30;;;;;;;22.47;30.50;97430.41;5111975;28;20028;-74
2023/03/27 12:07:51;;;;;;;6.20;4.50;;;;;;;21.99;31.66;97427.72;5111486;28;20062;-75
2023/03/27 12:10:25;;;;;;;5.20;4.70;;;;;;;21.88;31.78;97419.59;5110224;28;20062;-74
2023/03/27 12:13:21;;;;;;;8.18;4.85;;;;;;;21.55;30.81;97414.22;5111733;28;20027;-74
2023/03/27 12:16:23;;;;;;;7.45;4.60;;;;;;;21.68;30.16;97422.75;5109768;28;20049;-74
2023/03/27 12:19:11;;;;;;;11.05;5.45;;;;;;;21.58;31.23;97416.13;5107687;28;20027;-74
2023/03/27 12:21:54;;;;;;;11.30;4.38;;;;;;;21.66;30.90;97420.34;5109851;28;20114;-74
2023/03/27 12:24:35;;;;;;;8.40;4.35;;;;;;;21.22;31.62;97418.16;5101289;28;20390;-74
2023/03/27 12:27:18;;;;;;;8.10;4.55;;;;;;;21.27;31.78;97417.56;5112322;28;20035;-74
2023/03/27 12:29:58;;;;;;;14.93;5.25;;;;;;;20.80;31.84;97413.41;5112481;28;20535;-74
2023/03/27 12:32:47;;;;;;;13.55;5.53;;;;;;;20.87;32.83;97396.16;5112601;28;20053;-74
2023/03/27 12:35:19;;;;;;;13.85;7.72;;;;;;;20.54;33.22;97404.06;5104046;28;20411;-74
2023/03/27 12:37:56;;;;;;;12.50;7.35;;;;;;;20.36;34.50;97396.13;5110920;28;20019;-73
2023/03/27 12:40:38;;;;;;;21.35;9.48;;;;;;;20.34;33.70;97388.84;5091060;28;20102;-75
2023/03/27 12:43:25;;;;;;;10.32;6.28;;;;;;;20.34;31.72;97383.16;5092405;28;20019;-74
2023/03/27 12:46:15;;;;;;;12.60;5.60;;;;;;;20.44;31.97;97375.56;5111234;28;20032;-74